Time;durP1;ratioP1;P1;durP2;ratioP2;P2;SDS_P1;SDS_P2;PMS_P1;PMS_P2;Temp;Humidity;BMP_temperature;BMP_pressure;BME280_temperature;BME280_humidity;BME280_pressure;Samples;Min_cycle;Max_cycle;Signal;HPM_P1;HPM_P2
2022/05/06 00:01:50;;;;;;;22.08;9.55;;;;;;;13.08;90.58;98603.69;5088181;28;20040;-93
2022/05/06 00:04:16;;;;;;;23.08;9.40;;;;;;;12.99;89.97;98593.38;5088897;28;20058;-90
2022/05/06 00:06:42;;;;;;;20.35;9.13;;;;;;;13.05;90.17;98606.47;5088145;28;20032;-91
2022/05/06 00:09:08;;;;;;;23.33;8.32;;;;;;;13.08;88.97;98586.81;5090838;28;20469;-90
2022/05/06 00:11:35;;;;;;;16.63;8.25;;;;;;;13.11;88.76;98581.31;5087877;28;20043;-88
2022/05/06 00:14:01;;;;;;;22.65;8.45;;;;;;;13.19;88.22;98581.03;5087916;28;20135;-91
2022/05/06 00:16:28;;;;;;;17.73;9.15;;;;;;;13.21;87.30;98557.81;5088588;28;20810;-93
2022/05/06 00:18:54;;;;;;;16.38;8.25;;;;;;;13.24;87.54;98579.91;5088326;28;20040;-92
2022/05/06 00:21:20;;;;;;;18.33;9.73;;;;;;;13.19;87.19;98579.22;5087538;28;20079;-89
2022/05/06 00:23:47;;;;;;;17.50;7.97;;;;;;;13.28;87.33;98597.56;5087569;28;20040;-91
2022/05/06 00:26:13;;;;;;;19.83;8.43;;;;;;;13.26;86.94;98593.19;5088894;28;20363;-90
2022/05/06 00:28:40;;;;;;;17.38;8.18;;;;;;;13.39;86.13;98601.59;5089200;28;20097;-87
2022/05/06 00:31:06;;;;;;;15.70;7.50;;;;;;;13.39;85.19;98593.59;5087632;28;21026;-90
2022/05/06 00:33:33;;;;;;;18.15;8.40;;;;;;;13.45;84.91;98577.31;5088525;28;20048;-88
2022/05/06 00:36:01;;;;;;;19.30;8.70;;;;;;;13.53;83.78;98597.44;5088054;28;20056;-90
2022/05/06 00:38:28;;;;;;;19.15;8.02;;;;;;;13.55;83.83;98589.34;5088138;28;20516;-92
2022/05/06 00:40:54;;;;;;;18.90;9.52;;;;;;;13.56;83.31;98575.91;5088028;28;20040;-92
2022/05/06 00:43:21;;;;;;;17.15;8.20;;;;;;;13.61;82.78;98582.88;5088427;28;20048;-90
2022/05/06 00:45:52;;;;;;;16.45;7.97;;;;;;;13.72;82.34;98594.84;5088158;28;20541;-90
2022/05/06 00:48:19;;;;;;;15.20;8.35;;;;;;;13.73;82.15;98601.06;5077030;28;20036;-90
2022/05/06 00:50:45;;;;;;;14.82;7.50;;;;;;;13.60;82.93;98575.78;5074516;28;20117;-90
2022/05/06 00:53:12;;;;;;;16.70;7.95;;;;;;;13.67;82.62;98583.47;5074196;28;20051;-89
2022/05/06 00:55:38;;;;;;;22.33;8.55;;;;;;;13.73;82.29;98583.22;5074397;28;20389;-93
2022/05/06 00:58:04;;;;;;;20.85;8.18;;;;;;;13.60;82.16;98555.28;5074814;28;20115;-91
2022/05/06 01:00:29;;;;;;;18.02;8.38;;;;;;;13.66;82.81;98570.19;5074155;28;20039;-89
2022/05/06 01:02:57;;;;;;;20.80;8.25;;;;;;;13.75;82.26;98597.38;5073712;28;20036;-90
2022/05/06 01:05:23;;;;;;;18.60;8.50;;;;;;;13.73;82.75;98593.06;5074416;28;20040;-91
2022/05/06 01:07:50;;;;;;;18.20;8.68;;;;;;;13.73;82.67;98590.38;5074024;28;20106;-88
2022/05/06 01:10:18;;;;;;;16.80;9.00;;;;;;;13.69;82.53;98578.94;5073573;28;20048;-90
2022/05/06 01:12:44;;;;;;;19.65;8.50;;;;;;;13.55;83.23;98559.94;5073390;28;20036;-90
2022/05/06 01:15:20;;;;;;;21.23;9.32;;;;;;;13.54;83.56;98563.56;5073683;28;20123;-91
2022/05/06 01:17:46;;;;;;;20.65;9.85;;;;;;;13.74;82.39;98568.06;5073638;28;20041;-91
2022/05/06 01:20:16;;;;;;;16.15;9.40;;;;;;;13.65;82.87;98542.59;5073465;28;20066;-90
2022/05/06 01:22:46;;;;;;;19.95;9.90;;;;;;;13.59;83.28;98548.19;5070369;28;20044;-90
2022/05/06 01:25:12;;;;;;;20.40;8.93;;;;;;;13.62;84.28;98553.44;5072070;28;20047;-90
2022/05/06 01:27:44;;;;;;;18.40;10.02;;;;;;;13.64;83.98;98550.66;5074400;28;20033;-89
2022/05/06 01:30:17;;;;;;;15.10;9.48;;;;;;;13.56;83.44;98534.97;5074082;28;20040;-90
2022/05/06 01:32:43;;;;;;;17.98;9.73;;;;;;;13.59;84.07;98537.50;5072523;28;20131;-91
2022/05/06 01:35:11;;;;;;;20.00;9.60;;;;;;;13.59;83.54;98533.97;5073195;28;20127;-94
2022/05/06 01:37:39;;;;;;;18.17;10.27;;;;;;;13.71;83.97;98552.16;5071809;28;20041;-93
2022/05/06 01:40:09;;;;;;;21.17;10.10;;;;;;;13.76;83.08;98553.69;5073331;28;20390;-91
2022/05/06 01:42:36;;;;;;;17.27;9.35;;;;;;;13.87;82.96;98555.03;5072651;28;20068;-89
2022/05/06 01:45:07;;;;;;;17.67;9.52;;;;;;;13.77;82.89;98541.22;5071958;28;20036;-90
2022/05/06 01:47:34;;;;;;;26.95;9.30;;;;;;;13.78;82.69;98532.25;5071665;28;20398;-91
2022/05/06 01:50:03;;;;;;;19.80;9.27;;;;;;;13.75;82.57;98530.59;5071744;28;20049;-91
2022/05/06 01:52:31;;;;;;;21.00;9.80;;;;;;;13.79;83.57;98523.28;5071737;28;20053;-92
2022/05/06 01:54:57;;;;;;;19.17;10.68;;;;;;;13.74;85.06;98511.94;5073180;28;20084;-91
2022/05/06 01:57:24;;;;;;;19.83;11.00;;;;;;;13.66;85.38;98509.63;5073095;28;20041;-92
2022/05/06 01:59:49;;;;;;;20.15;11.60;;;;;;;13.63;85.62;98506.19;5072560;28;20064;-94
2022/05/06 02:02:15;;;;;;;21.48;10.50;;;;;;;13.64;85.55;98497.22;5073620;28;20106;-91
2022/05/06 02:07:36;;;;;;;19.02;10.48;;;;;;;13.80;84.13;98495.63;5067988;27;20399;-90
2022/05/06 02:10:02;;;;;;;18.02;9.90;;;;;;;13.85;83.98;98506.97;5069064;28;20123;-90
2022/05/06 02:12:28;;;;;;;19.45;11.45;;;;;;;13.92;83.11;98503.09;5068345;28;20041;-91
2022/05/06 02:14:54;;;;;;;20.65;10.45;;;;;;;13.95;82.51;98497.63;5068789;28;20815;-91
2022/05/06 02:17:20;;;;;;;18.88;10.05;;;;;;;13.89;83.41;98505.03;5069414;28;20072;-91
2022/05/06 02:19:45;;;;;;;19.63;9.68;;;;;;;13.79;84.13;98485.00;5068301;28;20467;-89
2022/05/06 02:22:11;;;;;;;18.80;10.48;;;;;;;13.81;84.54;98496.50;5067124;28;20071;-91
2022/05/06 02:24:42;;;;;;;19.98;10.75;;;;;;;13.82;83.80;98477.72;5068420;28;20076;-90
2022/05/06 02:27:12;;;;;;;19.73;11.02;;;;;;;13.85;83.43;98474.03;5067907;28;20094;-91
2022/05/06 02:29:37;;;;;;;21.05;11.05;;;;;;;13.84;83.77;98472.31;5067450;28;20383;-91
2022/05/06 02:34:57;;;;;;;18.85;9.80;;;;;;;13.84;84.26;98472.31;5120910;27;20370;-91
2022/05/06 02:37:22;;;;;;;18.95;9.75;;;;;;;13.85;84.21;98474.91;5088792;28;20048;-90
2022/05/06 02:39:48;;;;;;;18.73;9.88;;;;;;;13.81;84.92;98467.09;5089677;28;20386;-93
2022/05/06 02:42:14;;;;;;;20.08;10.18;;;;;;;13.79;84.56;98460.94;5088307;28;20036;-92
2022/05/06 02:44:40;;;;;;;19.95;10.48;;;;;;;13.73;84.49;98444.25;5087658;28;20032;-90
2022/05/06 02:47:05;;;;;;;20.95;10.23;;;;;;;13.73;84.82;98452.28;5089493;28;20127;-89
2022/05/06 02:49:31;;;;;;;19.52;11.10;;;;;;;13.72;84.86;98450.53;5089161;28;20048;-91
2022/05/06 02:51:58;;;;;;;22.00;12.80;;;;;;;13.79;84.08;98442.25;5089210;28;20037;-92
2022/05/06 02:54:24;;;;;;;23.38;11.02;;;;;;;13.76;84.64;98436.09;5088870;28;20169;-90
2022/05/06 02:56:50;;;;;;;22.55;11.00;;;;;;;13.81;84.26;98441.22;5089548;28;20104;-93
2022/05/06 02:59:16;;;;;;;17.10;10.10;;;;;;;13.82;84.24;98455.47;5089260;28;20048;-93
2022/05/06 03:01:42;;;;;;;17.67;10.35;;;;;;;13.80;84.22;98458.22;5088675;28;20530;-92
2022/05/06 03:04:11;;;;;;;18.25;9.45;;;;;;;13.70;84.85;98443.53;5088667;28;20047;-91
2022/05/06 03:06:38;;;;;;;;;;;;;;;13.81;84.80;98464.41;5090160;28;20035;-92
2022/05/06 03:09:06;;;;;;;21.15;9.43;;;;;;;13.70;84.82;98446.19;5090592;28;19924;-90
2022/05/06 03:11:32;;;;;;;20.08;10.60;;;;;;;13.75;84.70;98452.22;5086431;28;20040;-93
2022/05/06 03:13:57;;;;;;;16.63;9.70;;;;;;;13.71;84.26;98435.44;5088238;28;20048;-90
2022/05/06 03:16:23;;;;;;;19.65;9.80;;;;;;;13.68;84.51;98424.03;5088336;28;20097;-91
2022/05/06 03:18:49;;;;;;;22.45;9.93;;;;;;;13.73;84.44;98438.91;5085458;28;20871;-93
2022/05/06 03:21:14;;;;;;;21.10;10.40;;;;;;;13.76;84.78;98446.78;5087505;28;20071;-91
2022/05/06 03:23:40;;;;;;;20.88;9.55;;;;;;;13.68;84.27;98435.56;5087585;28;20056;-91
2022/05/06 03:26:07;;;;;;;20.13;10.20;;;;;;;13.74;83.98;98431.75;5087186;28;20036;-91
2022/05/06 03:28:34;;;;;;;19.23;10.68;;;;;;;13.88;83.25;98457.84;5086380;28;20036;-91
2022/05/06 03:31:00;;;;;;;19.98;10.07;;;;;;;13.79;82.92;98431.56;5088366;28;20040;-91
2022/05/06 03:33:28;;;;;;;17.92;9.55;;;;;;;13.84;82.81;98433.09;5087064;28;20529;-91
2022/05/06 03:35:55;;;;;;;21.23;10.53;;;;;;;13.92;81.75;98427.38;5087917;28;20040;-91
2022/05/06 03:38:21;;;;;;;16.10;8.95;;;;;;;14.05;80.30;98428.56;5088566;28;20044;-91
2022/05/06 03:40:46;;;;;;;23.60;10.25;;;;;;;14.10;79.41;98428.34;5087788;28;20051;-92
2022/05/06 03:43:13;;;;;;;17.25;8.68;;;;;;;14.24;78.72;98430.34;5090092;28;20131;-90
2022/05/06 03:45:39;;;;;;;19.42;9.98;;;;;;;14.09;79.26;98407.88;5077753;28;20060;-92
2022/05/06 03:48:05;;;;;;;20.23;10.00;;;;;;;14.18;79.81;98444.88;5075770;28;20067;-90
2022/05/06 03:53:24;;;;;;;20.63;9.77;;;;;;;14.15;79.26;98434.34;5139254;27;20363;-92
2022/05/06 03:55:50;;;;;;;18.80;9.15;;;;;;;14.16;78.94;98433.38;5138553;27;20047;-93
2022/05/06 03:58:15;;;;;;;22.88;10.50;;;;;;;14.15;78.51;98427.16;5134681;27;20105;-92
2022/05/06 04:00:41;;;;;;;18.27;9.45;;;;;;;14.11;78.01;98404.19;5138184;27;20409;-93
2022/05/06 04:03:07;;;;;;;17.83;9.25;;;;;;;14.30;76.96;98422.91;5139492;27;20515;-92
2022/05/06 04:05:33;;;;;;;18.30;9.00;;;;;;;14.20;78.28;98423.41;5139102;27;20070;-91
2022/05/06 04:08:00;;;;;;;16.55;8.68;;;;;;;14.25;77.20;98424.94;5132664;27;20558;-90
2022/05/06 04:10:28;;;;;;;18.85;8.60;;;;;;;14.21;77.29;98422.50;5135649;27;20034;-91
2022/05/06 04:12:53;;;;;;;17.50;9.10;;;;;;;14.27;77.32;98438.22;5139663;27;20035;-91
2022/05/06 04:15:19;;;;;;;17.15;8.75;;;;;;;14.36;77.07;98454.72;5135902;27;20031;-89
2022/05/06 04:17:45;;;;;;;18.40;9.18;;;;;;;14.36;76.76;98451.19;5136779;27;20039;-90
2022/05/06 04:26:00;;;;;;;16.83;9.10;;;;;;;14.41;77.00;98446.47;5088411;27;20440;-92
2022/05/06 04:28:26;;;;;;;19.90;8.73;;;;;;;14.41;77.77;98456.31;5089732;28;20089;-92
2022/05/06 04:30:52;;;;;;;18.85;9.18;;;;;;;14.30;77.15;98420.22;5089331;28;20040;-89
2022/05/06 04:33:18;;;;;;;19.58;10.38;;;;;;;14.34;77.35;98429.00;5089715;28;20046;-92
2022/05/06 04:35:44;;;;;;;18.63;9.23;;;;;;;14.44;77.25;98446.31;5089252;28;20032;-91
2022/05/06 04:38:10;;;;;;;17.40;8.90;;;;;;;14.31;77.95;98424.66;5089384;28;20465;-93
2022/05/06 04:40:36;;;;;;;17.05;8.80;;;;;;;14.43;77.82;98451.75;5088698;28;20533;-92
2022/05/06 04:43:04;;;;;;;15.00;8.35;;;;;;;14.41;78.21;98445.63;5088999;28;20056;-93
2022/05/06 04:45:30;;;;;;;19.95;8.57;;;;;;;14.40;78.20;98450.09;5088706;28;20051;-90
2022/05/06 04:47:57;;;;;;;20.95;10.00;;;;;;;14.44;78.39;98457.00;5089200;28;20502;-94
2022/05/06 04:50:22;;;;;;;16.85;9.48;;;;;;;14.35;78.25;98441.41;5089417;28;20032;-91
2022/05/06 04:52:49;;;;;;;21.30;9.65;;;;;;;14.38;78.22;98438.59;5089547;28;20055;-89
2022/05/06 04:55:15;;;;;;;20.80;10.48;;;;;;;14.50;78.28;98462.06;5088729;28;20142;-90
2022/05/06 04:57:41;;;;;;;19.02;9.48;;;;;;;14.53;77.92;98456.59;5088576;28;20493;-92
2022/05/06 05:00:09;;;;;;;18.20;9.00;;;;;;;14.60;78.33;98465.22;5088467;28;20043;-92
2022/05/06 05:02:37;;;;;;;17.73;8.75;;;;;;;14.49;78.61;98451.47;5085920;28;20051;-91
2022/05/06 05:05:03;;;;;;;17.60;9.30;;;;;;;14.48;79.46;98463.09;5088319;28;20045;-90
2022/05/06 05:07:29;;;;;;;15.00;8.90;;;;;;;14.49;79.77;98473.72;5086895;28;20105;-90
2022/05/06 05:09:55;;;;;;;15.40;9.23;;;;;;;14.50;79.58;98477.28;5088026;28;20040;-93
2022/05/06 05:12:21;;;;;;;17.25;9.00;;;;;;;14.55;79.10;98468.13;5088792;28;20406;-90
2022/05/06 05:14:48;;;;;;;15.95;8.77;;;;;;;14.57;78.37;98462.69;5088098;28;20090;-92
2022/05/06 05:17:15;;;;;;;16.80;9.00;;;;;;;14.64;77.80;98472.16;5088059;28;20352;-91
2022/05/06 05:19:42;;;;;;;19.10;9.57;;;;;;;14.66;76.95;98461.38;5087644;28;20040;-91
2022/05/06 05:22:08;;;;;;;16.30;8.52;;;;;;;14.75;76.62;98452.91;5086411;28;20037;-90
2022/05/06 05:24:33;;;;;;;17.63;8.95;;;;;;;14.84;76.35;98459.63;5087353;28;20041;-90
2022/05/06 05:26:59;;;;;;;20.15;9.23;;;;;;;14.82;77.05;98450.78;5086674;28;20425;-91
2022/05/06 05:29:25;;;;;;;22.92;9.13;;;;;;;14.86;76.79;98463.94;5085755;28;20734;-90
2022/05/06 05:31:51;;;;;;;18.50;9.00;;;;;;;14.97;75.71;98472.31;5088897;28;20044;-91
2022/05/06 05:34:18;;;;;;;18.00;9.63;;;;;;;14.84;76.12;98455.13;5087708;28;20131;-92
2022/05/06 05:36:45;;;;;;;20.33;9.27;;;;;;;14.97;76.31;98475.00;5078260;28;20040;-91
2022/05/06 05:39:11;;;;;;;18.77;8.48;;;;;;;14.78;77.26;98461.63;5075546;28;20032;-93
2022/05/06 05:41:38;;;;;;;22.85;9.70;;;;;;;14.71;78.59;98454.00;5074073;28;20039;-90
2022/05/06 05:50:12;;;;;;;18.88;9.82;;;;;;;14.62;79.99;98449.97;5108281;27;20370;-92
2022/05/06 05:52:38;;;;;;;16.80;9.20;;;;;;;14.61;80.21;98468.75;5095163;28;20040;-93
2022/05/06 05:55:05;;;;;;;17.92;9.48;;;;;;;14.63;79.95;98477.59;5099044;28;20036;-92
2022/05/06 05:57:31;;;;;;;22.77;10.63;;;;;;;14.55;80.60;98484.19;5096560;28;20417;-91
2022/05/06 05:59:56;;;;;;;16.75;10.10;;;;;;;14.62;80.72;98489.25;5092266;28;20089;-91
2022/05/06 06:02:22;;;;;;;19.88;10.13;;;;;;;14.43;81.56;98474.03;5098309;28;20048;-92
2022/05/06 06:04:49;;;;;;;21.60;11.77;;;;;;;14.57;80.78;98474.28;5095379;28;20048;-90
2022/05/06 06:07:18;;;;;;;27.17;14.75;;;;;;;14.61;81.44;98472.28;5093563;28;20044;-92
2022/05/06 06:09:44;;;;;;;20.77;11.98;;;;;;;14.51;81.16;98461.16;5099007;28;20036;-92
2022/05/06 06:12:10;;;;;;;20.05;11.15;;;;;;;14.61;81.25;98495.53;5093339;28;20082;-92
2022/05/06 06:14:36;;;;;;;21.27;10.63;;;;;;;14.52;82.07;98486.94;5090297;28;20116;-89
2022/05/06 06:17:02;;;;;;;21.13;11.13;;;;;;;14.56;82.31;98496.59;5092494;28;20561;-91
2022/05/06 06:19:28;;;;;;;23.50;11.90;;;;;;;14.60;82.82;98488.44;5095265;28;20503;-92
2022/05/06 06:21:54;;;;;;;21.52;11.00;;;;;;;14.60;83.18;98488.44;5093930;28;20105;-92
2022/05/06 06:24:21;;;;;;;18.67;10.63;;;;;;;14.51;83.91;98487.91;5090446;28;20040;-91
2022/05/06 06:26:47;;;;;;;22.05;10.90;;;;;;;14.53;84.17;98482.47;5096177;28;20032;-92
2022/05/06 06:29:13;;;;;;;21.95;10.85;;;;;;;14.50;83.51;98477.28;5094738;28;20043;-91
2022/05/06 06:31:38;;;;;;;21.10;9.98;;;;;;;14.66;83.34;98489.03;5094091;28;20162;-91
2022/05/06 06:34:04;;;;;;;19.30;9.90;;;;;;;14.72;82.03;98482.47;5089104;28;20095;-93
2022/05/06 06:36:30;;;;;;;19.45;11.13;;;;;;;14.82;82.42;98499.84;5093522;28;20430;-91
2022/05/06 06:38:56;;;;;;;22.90;11.07;;;;;;;14.67;82.94;98463.13;5090378;28;20040;-92
2022/05/06 06:41:23;;;;;;;24.20;12.90;;;;;;;14.68;83.96;98478.22;5090704;28;20040;-92
2022/05/06 06:43:50;;;;;;;22.10;10.25;;;;;;;14.69;84.34;98490.66;5092481;28;20036;-91
2022/05/06 06:46:15;;;;;;;23.02;11.63;;;;;;;14.63;84.78;98482.94;5094393;28;20044;-91
2022/05/06 06:48:42;;;;;;;22.50;11.10;;;;;;;14.60;85.41;98494.66;5091319;28;20048;-91
2022/05/06 06:51:08;;;;;;;20.67;11.27;;;;;;;14.61;85.94;98493.72;5093476;28;20044;-92
2022/05/06 06:53:34;;;;;;;19.63;11.32;;;;;;;14.55;86.35;98497.56;5094786;28;20024;-92
2022/05/06 06:55:59;;;;;;;19.95;10.68;;;;;;;14.64;84.81;98503.38;5090469;28;20090;-92
2022/05/06 06:58:27;;;;;;;18.80;10.82;;;;;;;14.71;84.29;98516.41;5094000;28;20037;-91
2022/05/06 07:00:53;;;;;;;22.75;11.23;;;;;;;14.69;83.94;98509.41;5082973;28;20203;-92
2022/05/06 07:03:20;;;;;;;20.35;11.43;;;;;;;14.59;83.40;98484.88;5075242;28;20040;-92
2022/05/06 07:14:42;;;;;;;20.25;10.88;;;;;;;14.97;81.28;98492.88;5184458;27;20386;-91
2022/05/06 07:17:08;;;;;;;26.55;13.63;;;;;;;14.89;82.13;98493.22;5150915;27;20125;-94
2022/05/06 07:19:34;;;;;;;24.42;12.35;;;;;;;14.95;82.75;98484.91;5149751;27;20126;-90
2022/05/06 07:22:00;;;;;;;23.95;11.57;;;;;;;15.16;81.34;98482.97;5150439;27;20043;-91
2022/05/06 07:24:26;;;;;;;38.35;19.23;;;;;;;15.10;81.59;98482.41;5151364;27;20039;-93
2022/05/06 07:26:53;;;;;;;51.38;28.10;;;;;;;15.20;80.64;98484.56;5145557;27;20084;-91
2022/05/06 07:29:19;;;;;;;35.92;16.70;;;;;;;15.31;80.02;98477.78;5149188;27;20125;-91
2022/05/06 07:31:47;;;;;;;53.35;30.60;;;;;;;15.33;79.22;98473.19;5150113;27;20117;-92
2022/05/06 07:34:15;;;;;;;32.58;14.60;;;;;;;15.53;79.17;98482.91;5150193;27;20033;-93
2022/05/06 07:36:42;;;;;;;20.00;11.65;;;;;;;15.39;79.02;98478.25;5151221;27;20141;-92
2022/05/06 07:39:09;;;;;;;19.50;10.23;;;;;;;15.37;78.80;98464.94;5149989;27;20104;-92
2022/05/06 07:41:35;;;;;;;24.35;12.73;;;;;;;15.44;78.63;98492.28;5149539;27;20492;-92
2022/05/06 07:44:00;;;;;;;29.52;15.85;;;;;;;15.47;79.16;98480.56;5150177;27;20475;-91
2022/05/06 07:46:26;;;;;;;23.65;14.00;;;;;;;15.53;79.00;98490.97;5149530;27;20122;-93
2022/05/06 07:48:53;;;;;;;19.67;9.98;;;;;;;15.55;78.14;98486.38;5150072;27;20096;-92
2022/05/06 07:51:19;;;;;;;18.02;9.73;;;;;;;15.65;77.97;98484.94;5149774;27;20453;-92
2022/05/06 07:53:45;;;;;;;18.13;9.77;;;;;;;15.71;76.41;98470.34;5149045;27;20050;-93
2022/05/06 07:56:11;;;;;;;16.73;9.50;;;;;;;15.82;76.29;98484.94;5150410;27;20035;-93
2022/05/06 07:58:38;;;;;;;17.83;10.80;;;;;;;15.77;76.80;98500.41;5150167;27;20123;-93
2022/05/06 08:01:04;;;;;;;21.83;10.50;;;;;;;15.75;76.81;98486.22;5148324;27;20038;-92
2022/05/06 08:06:30;;;;;;;20.05;11.15;;;;;;;15.61;77.13;98494.09;5123066;27;20405;-92
2022/05/06 08:08:56;;;;;;;19.08;9.75;;;;;;;15.60;77.26;98484.31;5121584;28;20053;-93
2022/05/06 08:11:22;;;;;;;18.20;10.15;;;;;;;15.69;77.71;98496.38;5120779;28;20073;-90
2022/05/06 08:13:49;;;;;;;21.45;10.68;;;;;;;15.50;78.28;98491.97;5125664;28;20036;-93
2022/05/06 08:16:15;;;;;;;17.25;9.63;;;;;;;15.48;77.64;98495.66;5124065;28;20130;-90
2022/05/06 08:18:41;;;;;;;21.05;10.93;;;;;;;15.46;78.01;98490.41;5121070;28;20047;-94
2022/05/06 08:21:07;;;;;;;22.73;11.23;;;;;;;15.55;77.95;98515.88;5124222;27;20745;-91
2022/05/06 08:23:34;;;;;;;20.60;10.27;;;;;;;15.66;77.45;98507.25;5125731;28;20036;-93
2022/05/06 08:26:00;;;;;;;16.25;9.68;;;;;;;15.57;78.36;98508.59;5123015;28;20031;-91
2022/05/06 08:28:27;;;;;;;20.08;10.20;;;;;;;15.72;76.71;98515.91;5124946;27;20122;-92
2022/05/06 08:30:53;;;;;;;20.70;9.70;;;;;;;15.69;76.00;98493.69;5126467;27;20096;-93
2022/05/06 08:33:19;;;;;;;14.35;8.77;;;;;;;15.99;74.28;98507.34;5120401;28;20497;-94
2022/05/06 08:35:46;;;;;;;23.50;12.10;;;;;;;15.99;75.05;98497.47;5124398;27;20388;-95
2022/05/06 08:38:12;;;;;;;24.65;12.30;;;;;;;15.85;74.46;98504.50;5127298;28;20505;-95
2022/05/06 08:40:39;;;;;;;28.30;12.38;;;;;;;15.84;74.79;98484.88;5121408;28;20064;-96
2022/05/06 08:43:05;;;;;;;26.25;13.27;;;;;;;15.90;75.06;98492.59;5126209;28;20054;-95
2022/05/06 08:51:39;;;;;;;19.27;9.73;;;;;;;16.51;72.98;98517.06;5102934;27;20379;-93
2022/05/06 08:54:05;;;;;;;17.80;10.00;;;;;;;16.66;72.68;98504.59;5070136;28;20127;-94
2022/05/06 08:56:31;;;;;;;18.98;10.45;;;;;;;16.78;72.81;98515.50;5069927;28;20041;-92
2022/05/06 08:58:57;;;;;;;24.23;11.38;;;;;;;16.51;73.47;98507.19;5071018;28;20459;-94
2022/05/06 09:01:25;;;;;;;22.55;11.32;;;;;;;16.39;75.55;98524.84;5070499;28;20037;-94
2022/05/06 09:03:51;;;;;;;23.08;11.70;;;;;;;16.50;73.76;98513.47;5070501;28;20047;-93
2022/05/06 09:06:18;;;;;;;23.17;10.20;;;;;;;16.61;72.81;98500.34;5071394;28;20044;-93
2022/05/06 09:08:47;;;;;;;22.77;11.45;;;;;;;16.66;73.27;98510.84;5071411;28;20056;-94
2022/05/06 09:11:13;;;;;;;19.42;10.07;;;;;;;16.75;72.15;98510.31;5070794;28;20033;-93
2022/05/06 09:13:52;;;;;;;23.17;12.02;;;;;;;16.64;72.06;98505.53;5070931;28;20422;-95
2022/05/06 09:19:20;;;;;;;17.73;9.95;;;;;;;17.08;72.05;98519.25;5102337;27;20369;-94
2022/05/06 09:22:06;;;;;;;21.73;9.47;;;;;;;17.29;69.57;98520.69;5078185;28;20044;-94
2022/05/06 09:24:33;;;;;;;22.08;11.20;;;;;;;16.93;70.54;98519.16;5087978;28;20047;-95
2022/05/06 09:27:01;;;;;;;21.27;9.95;;;;;;;17.18;71.01;98518.63;5078299;28;20059;-93
2022/05/06 09:29:33;;;;;;;20.92;10.02;;;;;;;17.30;70.36;98525.09;5077394;28;20040;-94
2022/05/06 09:32:19;;;;;;;22.08;11.23;;;;;;;17.17;69.22;98532.16;5086797;28;20071;-94
2022/05/06 09:34:47;;;;;;;20.67;10.45;;;;;;;16.91;71.33;98514.84;5087663;28;20082;-94
2022/05/06 09:37:29;;;;;;;17.00;9.98;;;;;;;17.00;71.15;98522.38;5079667;28;20037;-93
2022/05/06 09:40:05;;;;;;;21.40;9.25;;;;;;;17.06;70.28;98513.09;5082401;28;20127;-94
2022/05/06 09:42:30;;;;;;;22.88;10.60;;;;;;;17.27;70.94;98517.22;5078935;28;20045;-96
2022/05/06 09:44:56;;;;;;;18.77;8.95;;;;;;;17.62;68.62;98512.44;5084234;28;20101;-94
2022/05/06 09:47:24;;;;;;;20.00;10.30;;;;;;;17.62;68.59;98516.97;5082322;28;20060;-93
2022/05/06 09:49:52;;;;;;;19.05;9.30;;;;;;;17.65;69.14;98498.81;5080499;28;20037;-94
2022/05/06 09:52:19;;;;;;;20.30;9.23;;;;;;;18.02;68.36;98518.13;5082048;28;20043;-96
2022/05/06 09:54:47;;;;;;;17.25;9.07;;;;;;;18.33;66.43;98504.59;5085152;28;20126;-94
2022/05/06 09:57:15;;;;;;;20.17;9.20;;;;;;;18.09;67.11;98523.16;5081772;28;20441;-94
2022/05/06 09:59:41;;;;;;;17.95;9.30;;;;;;;18.29;66.44;98516.53;5075836;28;20057;-93
2022/05/06 10:02:08;;;;;;;23.15;10.90;;;;;;;17.58;67.74;98507.34;5081633;28;20045;-96
2022/05/06 10:04:35;;;;;;;20.45;9.88;;;;;;;17.69;67.76;98506.69;5078801;28;20044;-91
2022/05/06 10:07:04;;;;;;;19.90;9.88;;;;;;;17.83;67.63;98501.41;5078678;28;20049;-94
2022/05/06 10:09:52;;;;;;;18.13;10.02;;;;;;;17.65;67.86;98501.53;5077051;28;20123;-94
2022/05/06 10:12:20;;;;;;;21.33;10.48;;;;;;;17.51;67.99;98500.63;5082473;28;20032;-93
2022/05/06 10:14:46;;;;;;;22.83;11.00;;;;;;;17.24;70.06;98517.41;5076771;28;20071;-95
2022/05/06 10:17:32;;;;;;;20.42;10.60;;;;;;;17.40;70.46;98526.28;5081311;28;20510;-92
2022/05/06 10:19:58;;;;;;;18.33;9.75;;;;;;;17.32;70.37;98511.56;5080387;28;20060;-94
2022/05/06 10:22:57;;;;;;;19.00;11.55;;;;;;;17.08;71.50;98513.88;5084627;28;20048;-94
2022/05/06 10:25:47;;;;;;;17.92;10.32;;;;;;;17.22;71.45;98522.00;5087592;28;20056;-92
2022/05/06 10:35:12;;;;;;;19.52;9.73;;;;;;;17.43;70.50;98518.03;5127054;27;20372;-90
2022/05/06 10:37:44;;;;;;;20.50;10.48;;;;;;;16.95;72.17;98503.81;5126364;28;20048;-94
2022/05/06 10:40:30;;;;;;;26.17;10.25;;;;;;;16.98;71.58;98506.34;5122893;28;20123;-93
2022/05/06 10:42:55;;;;;;;17.45;9.23;;;;;;;17.01;73.48;98484.69;5121862;27;20060;-91
2022/05/06 10:45:22;;;;;;;25.15;10.20;;;;;;;16.91;73.04;98486.16;5126615;28;20490;-92
2022/05/06 10:47:49;;;;;;;25.17;10.43;;;;;;;17.04;74.79;98513.19;5119066;27;20046;-92
2022/05/06 10:50:19;;;;;;;24.25;11.10;;;;;;;16.89;74.75;98509.53;5127093;27;20047;-92
2022/05/06 10:52:45;;;;;;;23.25;9.85;;;;;;;17.07;74.96;98502.28;5122486;28;20028;-95
2022/05/06 10:55:16;;;;;;;25.15;10.27;;;;;;;16.77;75.47;98502.16;5117624;28;20039;-94
2022/05/06 10:57:48;;;;;;;28.27;10.85;;;;;;;16.88;76.23;98512.34;5122293;28;20074;-91
2022/05/06 11:00:14;;;;;;;26.73;11.80;;;;;;;16.82;76.24;98526.97;5122289;27;20044;-92
2022/05/06 11:02:40;;;;;;;23.98;10.63;;;;;;;16.81;78.15;98512.69;5122919;28;20373;-91
2022/05/06 11:05:08;;;;;;;23.85;11.18;;;;;;;17.10;78.82;98501.22;5119245;28;20039;-93
2022/05/06 11:07:37;;;;;;;22.45;11.65;;;;;;;16.97;77.08;98496.53;5121033;27;20079;-92
2022/05/06 11:10:09;;;;;;;21.38;10.25;;;;;;;16.98;78.17;98503.66;5120492;28;20501;-91
2022/05/06 11:12:37;;;;;;;21.58;10.68;;;;;;;17.39;76.41;98511.13;5121242;28;20039;-91
2022/05/06 11:15:05;;;;;;;26.33;11.07;;;;;;;16.94;77.28;98491.38;5121930;27;20046;-91
2022/05/06 11:17:32;;;;;;;21.30;10.98;;;;;;;16.82;79.16;98505.47;5119060;28;20048;-92
2022/05/06 11:19:58;;;;;;;20.50;11.02;;;;;;;16.86;79.54;98504.34;5121762;28;20044;-91
2022/05/06 11:22:25;;;;;;;19.48;10.50;;;;;;;17.24;78.17;98510.22;5122298;27;20055;-91
2022/05/06 11:24:56;;;;;;;24.48;11.23;;;;;;;17.40;77.59;98499.41;5125258;27;20046;-91
2022/05/06 11:27:22;;;;;;;20.52;10.05;;;;;;;17.74;74.83;98504.59;5120572;28;20469;-89
2022/05/06 11:29:50;;;;;;;24.88;9.38;;;;;;;17.70;73.79;98501.25;5118393;28;20058;-92
2022/05/06 11:32:16;;;;;;;22.48;10.73;;;;;;;17.58;73.76;98499.28;5121972;28;20040;-92
2022/05/06 11:34:47;;;;;;;20.83;9.82;;;;;;;17.68;73.39;98495.09;5121136;27;20431;-91
2022/05/06 11:37:20;;;;;;;19.25;9.93;;;;;;;17.63;73.81;98497.16;5124169;27;20455;-93
2022/05/06 11:39:46;;;;;;;21.65;9.48;;;;;;;18.02;71.33;98487.66;5118012;27;20097;-90
2022/05/06 11:42:23;;;;;;;23.20;10.48;;;;;;;17.58;72.90;98484.00;5119920;27;20052;-91
2022/05/06 11:48:05;;;;;;;18.70;9.50;;;;;;;17.68;71.43;98500.47;5184928;27;20381;-90
2022/05/06 11:50:33;;;;;;;24.42;9.35;;;;;;;17.75;72.77;98488.38;5148968;27;20039;-94
2022/05/06 11:53:01;;;;;;;20.42;10.05;;;;;;;17.98;72.37;98480.75;5150233;27;20039;-90
2022/05/06 11:55:27;;;;;;;20.60;9.73;;;;;;;17.88;70.85;98474.22;5150164;27;20068;-91
2022/05/06 11:57:54;;;;;;;20.98;9.02;;;;;;;17.99;70.47;98483.34;5151262;27;20689;-91
2022/05/06 12:00:20;;;;;;;18.80;8.77;;;;;;;17.86;70.16;98476.97;5151039;27;20030;-94
2022/05/06 12:02:48;;;;;;;20.02;8.93;;;;;;;17.95;70.97;98465.66;5150102;27;20030;-93
2022/05/06 12:05:16;;;;;;;20.90;9.35;;;;;;;17.61;71.61;98462.31;5151970;27;20380;-94
2022/05/06 12:07:42;;;;;;;17.17;9.43;;;;;;;17.64;71.58;98461.25;5151677;27;20046;-94
2022/05/06 12:10:10;;;;;;;20.33;9.60;;;;;;;17.72;72.26;98469.75;5151883;27;20043;-93
2022/05/06 12:12:51;;;;;;;19.85;9.18;;;;;;;17.82;71.75;98462.84;5149663;27;20039;-94
2022/05/06 12:15:17;;;;;;;21.30;10.40;;;;;;;17.58;71.91;98458.94;5148847;27;20526;-92